Time;durP1;ratioP1;P1;durP2;ratioP2;P2;SDS_P1;SDS_P2;PMS_P1;PMS_P2;Temp;Humidity;BMP_temperature;BMP_pressure;BME280_temperature;BME280_humidity;BME280_pressure;Samples;Min_cycle;Max_cycle;Signal;HPM_P1;HPM_P2
2021/08/31 00:00:55;;;;;;;;;;;;;;;;;;2076320;28;1648;-82
2021/08/31 00:01:56;;;;;;;;;;;;;;;;;;2072217;28;1480;-81
2021/08/31 00:02:57;;;;;;;;;;;;;;;;;;2067588;28;1717;-82
2021/08/31 00:03:58;;;;;;;;;;;;;;;;;;2067643;28;1231;-81
2021/08/31 00:05:00;;;;;;;;;;;;;;;;;;2075783;28;1326;-81
2021/08/31 00:06:01;;;;;;;;;;;;;;;;;;2083720;28;1513;-81
2021/08/31 00:07:03;;;;;;;;;;;;;;;;;;2067530;28;1605;-82
2021/08/31 00:08:04;;;;;;;;;;;;;;;;;;2067253;28;1304;-81
2021/08/31 00:09:06;;;;;;;;;;;;;;;;;;2067355;28;1261;-81
2021/08/31 00:10:07;;;;;;;;;;;;;;;;;;2067011;28;2029;-81
2021/08/31 00:11:09;;;;;;;;;;;;;;;;;;2067857;28;1280;-81
2021/08/31 00:12:10;;;;;;;;;;;;;;;;;;2067378;28;1316;-81
2021/08/31 00:13:11;;;;;;;;;;;;;;;;;;2067599;28;1349;-81
2021/08/31 00:14:15;;;;;;;;;;;;;;;;;;2083523;28;1733;-81
2021/08/31 00:15:18;;;;;;;;;;;;;;;;;;2059218;28;1888;-81
2021/08/31 00:16:18;;;;;;;;;;;;;;;;;;2067869;28;1445;-82
2021/08/31 00:17:21;;;;;;;;;;;;;;;;;;2067458;28;1431;-82
2021/08/31 00:18:22;;;;;;;;;;;;;;;;;;2067438;28;1359;-81
2021/08/31 00:19:24;;;;;;;;;;;;;;;;;;2067613;28;1915;-82
2021/08/31 00:20:25;;;;;;;;;;;;;;;;;;2066608;28;2126;-80
2021/08/31 00:21:26;;;;;;;;;;;;;;;;;;2059272;28;1359;-80
2021/08/31 00:22:27;;;;;;;;;;;;;;;;;;2068145;28;1293;-80
2021/08/31 00:23:29;;;;;;;;;;;;;;;;;;2075403;28;1259;-80
2021/08/31 00:24:30;;;;;;;;;;;;;;;;;;2075159;28;1684;-80
2021/08/31 00:25:32;;;;;;;;;;;;;;;;;;2066947;28;1742;-81
2021/08/31 00:26:33;;;;;;;;;;;;;;;;;;2067476;28;1532;-80
2021/08/31 00:27:35;;;;;;;;;;;;;;;;;;2075238;28;1572;-80
2021/08/31 00:28:35;;;;;;;;;;;;;;;;;;2074873;28;1398;-80
2021/08/31 00:29:39;;;;;;;;;;;;;;;;;;2074829;28;1345;-81
2021/08/31 00:30:39;;;;;;;;;;;;;;;;;;2059506;28;1579;-80
2021/08/31 00:31:41;;;;;;;;;;;;;;;;;;2059357;28;1742;-80
2021/08/31 00:32:42;;;;;;;;;;;;;;;;;;2059356;28;1292;-81
2021/08/31 00:33:44;;;;;;;;;;;;;;;;;;2067192;28;1694;-82
2021/08/31 00:34:44;;;;;;;;;;;;;;;;;;2070347;28;888;-82
2021/08/31 00:35:46;;;;;;;;;;;;;;;;;;2083305;28;1690;-82
2021/08/31 00:36:47;;;;;;;;;;;;;;;;;;2083325;28;1211;-82
2021/08/31 00:37:49;;;;;;;;;;;;;;;;;;2067396;28;1731;-82
2021/08/31 00:38:50;;;;;;;;;;;;;;;;;;2067933;28;1354;-81
2021/08/31 00:39:52;;;;;;;;;;;;;;;;;;2064359;28;2040;-82
2021/08/31 00:40:53;;;;;;;;;;;;;;;;;;2067489;28;1536;-81
2021/08/31 00:41:55;;;;;;;;;;;;;;;;;;2066935;28;1499;-82
2021/08/31 00:42:55;;;;;;;;;;;;;;;;;;2067351;28;1190;-81
2021/08/31 00:43:57;;;;;;;;;;;;;;;;;;2067185;28;1493;-81
2021/08/31 00:44:59;;;;;;;;;;;;;;;;;;2058884;28;1265;-81
2021/08/31 00:46:01;;;;;;;;;;;;;;;;;;2067284;28;1798;-81
2021/08/31 00:47:02;;;;;;;;;;;;;;;;;;2070489;28;1662;-81
2021/08/31 00:48:05;;;;;;;;;;;;;;;;;;2067154;28;1530;-80
2021/08/31 00:49:05;;;;;;;;;;;;;;;;;;2067401;28;1524;-80
2021/08/31 00:50:07;;;;;;;;;;;;;;;;;;2071240;28;1510;-81
2021/08/31 00:51:09;;;;;;;;;;;;;;;;;;2067274;28;1466;-80
2021/08/31 00:52:12;;;;;;;;;;;;;;;;;;2067092;28;1243;-80
2021/08/31 00:53:12;;;;;;;;;;;;;;;;;;2075427;28;767;-80
2021/08/31 00:54:15;;;;;;;;;;;;;;;;;;2075361;28;1821;-80
2021/08/31 00:55:16;;;;;;;;;;;;;;;;;;2075149;28;962;-81
2021/08/31 00:56:18;;;;;;;;;;;;;;;;;;2075182;28;1259;-81
2021/08/31 00:57:19;;;;;;;;;;;;;;;;;;2074864;28;1821;-81
2021/08/31 00:58:21;;;;;;;;;;;;;;;;;;2074738;28;1529;-81
2021/08/31 00:59:21;;;;;;;;;;;;;;;;;;2075478;28;1304;-81
2021/08/31 01:00:25;;;;;;;;;;;;;;;;;;2074690;28;2025;-81
2021/08/31 01:01:25;;;;;;;;;;;;;;;;;;2075435;28;1044;-82
2021/08/31 01:02:27;;;;;;;;;;;;;;;;;;2068842;28;1755;-81
2021/08/31 01:03:28;;;;;;;;;;;;;;;;;;2059214;28;1280;-81
2021/08/31 01:04:30;;;;;;;;;;;;;;;;;;2067589;28;1628;-81
2021/08/31 01:05:32;;;;;;;;;;;;;;;;;;2066789;28;1702;-82
2021/08/31 01:06:34;;;;;;;;;;;;;;;;;;2067466;28;1480;-81
2021/08/31 01:07:35;;;;;;;;;;;;;;;;;;2074746;28;1548;-81
2021/08/31 01:08:37;;;;;;;;;;;;;;;;;;2061212;28;1549;-81
2021/08/31 01:09:41;;;;;;;;;;;;;;;;;;2054458;28;1357;-82
2021/08/31 01:10:44;;;;;;;;;;;;;;;;;;2063163;28;1272;-81
2021/08/31 01:11:46;;;;;;;;;;;;;;;;;;2070319;28;1158;-81
2021/08/31 01:12:48;;;;;;;;;;;;;;;;;;2070471;28;1199;-81
2021/08/31 01:13:49;;;;;;;;;;;;;;;;;;2071494;28;885;-82
2021/08/31 01:14:51;;;;;;;;;;;;;;;;;;2073665;28;1743;-81
2021/08/31 01:15:53;;;;;;;;;;;;;;;;;;2068046;28;1326;-81
2021/08/31 01:16:55;;;;;;;;;;;;;;;;;;2067616;28;1252;-82
2021/08/31 01:17:56;;;;;;;;;;;;;;;;;;2066717;28;1347;-82
2021/08/31 01:18:58;;;;;;;;;;;;;;;;;;2067486;28;1559;-82
2021/08/31 01:19:59;;;;;;;;;;;;;;;;;;2074954;28;1914;-82
2021/08/31 01:21:01;;;;;;;;;;;;;;;;;;2067110;28;1323;-82
2021/08/31 01:22:03;;;;;;;;;;;;;;;;;;2075348;28;1563;-82
2021/08/31 01:23:05;;;;;;;;;;;;;;;;;;2075144;28;1823;-80
2021/08/31 01:24:06;;;;;;;;;;;;;;;;;;2074950;28;1538;-82
2021/08/31 01:25:10;;;;;;;;;;;;;;;;;;2070314;28;1693;-82
2021/08/31 01:26:12;;;;;;;;;;;;;;;;;;2067038;28;829;-81
2021/08/31 01:27:12;;;;;;;;;;;;;;;;;;2075049;28;1318;-81
2021/08/31 01:28:18;;;;;;;;;;;;;;;;;;2067030;28;1684;-82
2021/08/31 01:29:19;;;;;;;;;;;;;;;;;;2067308;28;887;-81
2021/08/31 01:30:21;;;;;;;;;;;;;;;;;;2073166;28;1544;-82
2021/08/31 01:31:22;;;;;;;;;;;;;;;;;;2067359;28;1371;-82
2021/08/31 01:32:24;;;;;;;;;;;;;;;;;;2068464;28;1247;-81
2021/08/31 01:33:26;;;;;;;;;;;;;;;;;;2059328;28;1711;-82
2021/08/31 01:34:28;;;;;;;;;;;;;;;;;;2058664;28;1702;-82
2021/08/31 01:35:29;;;;;;;;;;;;;;;;;;2066792;28;2057;-82
2021/08/31 01:36:30;;;;;;;;;;;;;;;;;;2067090;28;1759;-81
2021/08/31 01:37:31;;;;;;;;;;;;;;;;;;2066299;28;1342;-81
2021/08/31 01:38:33;;;;;;;;;;;;;;;;;;2066735;28;1486;-80
2021/08/31 01:39:35;;;;;;;;;;;;;;;;;;2066784;28;1745;-81
2021/08/31 01:40:39;;;;;;;;;;;;;;;;;;2058458;28;1974;-81
2021/08/31 01:41:40;;;;;;;;;;;;;;;;;;2059301;28;938;-82
2021/08/31 01:42:42;;;;;;;;;;;;;;;;;;2066760;28;1335;-82
2021/08/31 01:43:44;;;;;;;;;;;;;;;;;;2059082;28;1427;-82
2021/08/31 01:44:44;;;;;;;;;;;;;;;;;;2059009;28;1602;-81
2021/08/31 01:45:47;;;;;;;;;;;;;;;;;;2066468;28;1202;-82
2021/08/31 01:46:47;;;;;;;;;;;;;;;;;;2058847;28;1352;-82
2021/08/31 01:47:49;;;;;;;;;;;;;;;;;;2058598;28;1671;-82
2021/08/31 01:48:50;;;;;;;;;;;;;;;;;;2067036;28;1308;-82
2021/08/31 01:49:52;;;;;;;;;;;;;;;;;;2066589;28;1742;-82
2021/08/31 01:50:53;;;;;;;;;;;;;;;;;;2058771;28;1442;-82
2021/08/31 01:51:54;;;;;;;;;;;;;;;;;;2058578;28;1241;-82
2021/08/31 01:52:55;;;;;;;;;;;;;;;;;;2066469;28;1280;-81
2021/08/31 01:53:58;;;;;;;;;;;;;;;;;;2066849;28;1515;-82
2021/08/31 01:54:59;;;;;;;;;;;;;;;;;;2069113;28;1603;-82
2021/08/31 01:56:03;;;;;;;;;;;;;;;;;;2066378;28;1743;-82
2021/08/31 01:57:05;;;;;;;;;;;;;;;;;;2066911;28;836;-82
2021/08/31 01:58:05;;;;;;;;;;;;;;;;;;2066402;28;1973;-82
2021/08/31 01:59:07;;;;;;;;;;;;;;;;;;2066887;28;1133;-82
2021/08/31 02:00:09;;;;;;;;;;;;;;;;;;2058513;28;1976;-82
2021/08/31 02:01:13;;;;;;;;;;;;;;;;;;2059209;28;808;-81
2021/08/31 02:02:14;;;;;;;;;;;;;;;;;;2071804;28;1273;-82
2021/08/31 02:03:16;;;;;;;;;;;;;;;;;;2066256;28;1875;-81
2021/08/31 02:04:16;;;;;;;;;;;;;;;;;;2066913;28;1340;-82
2021/08/31 02:05:18;;;;;;;;;;;;;;;;;;2066289;28;1946;-81
2021/08/31 02:06:19;;;;;;;;;;;;;;;;;;2074727;28;920;-81
2021/08/31 02:07:21;;;;;;;;;;;;;;;;;;2066593;28;1423;-81
2021/08/31 02:08:21;;;;;;;;;;;;;;;;;;2066583;28;1811;-81
2021/08/31 02:09:23;;;;;;;;;;;;;;;;;;2074962;28;1419;-81
2021/08/31 02:10:24;;;;;;;;;;;;;;;;;;2074082;28;1327;-81
2021/08/31 02:11:28;;;;;;;;;;;;;;;;;;2074225;28;1833;-81
2021/08/31 02:12:29;;;;;;;;;;;;;;;;;;2066888;28;1183;-81
2021/08/31 02:13:31;;;;;;;;;;;;;;;;;;2074119;28;1768;-81
2021/08/31 02:14:32;;;;;;;;;;;;;;;;;;2074363;28;1049;-81
2021/08/31 02:15:33;;;;;;;;;;;;;;;;;;2074144;28;1268;-80
2021/08/31 02:16:36;;;;;;;;;;;;;;;;;;2067311;28;1726;-81
2021/08/31 02:17:37;;;;;;;;;;;;;;;;;;2073580;28;1529;-81
2021/08/31 02:18:39;;;;;;;;;;;;;;;;;;2066789;28;1367;-81
2021/08/31 02:19:40;;;;;;;;;;;;;;;;;;2066220;28;1375;-82
2021/08/31 02:20:41;;;;;;;;;;;;;;;;;;2066726;28;1973;-81
2021/08/31 02:21:43;;;;;;;;;;;;;;;;;;2066703;28;1334;-81
2021/08/31 02:22:44;;;;;;;;;;;;;;;;;;2066662;28;1392;-81
2021/08/31 02:23:46;;;;;;;;;;;;;;;;;;2066620;28;1637;-81
2021/08/31 02:24:46;;;;;;;;;;;;;;;;;;2074336;28;2072;-81
2021/08/31 02:25:48;;;;;;;;;;;;;;;;;;2066355;28;1350;-81
2021/08/31 02:26:51;;;;;;;;;;;;;;;;;;2066672;28;1273;-81
2021/08/31 02:27:52;;;;;;;;;;;;;;;;;;2066593;28;1577;-81
2021/08/31 02:28:53;;;;;;;;;;;;;;;;;;2075100;28;1589;-81
2021/08/31 02:29:56;;;;;;;;;;;;;;;;;;2066423;28;1692;-81
2021/08/31 02:30:58;;;;;;;;;;;;;;;;;;2058822;28;1462;-81
2021/08/31 02:32:02;;;;;;;;;;;;;;;;;;2058650;28;1315;-81
2021/08/31 02:33:03;;;;;;;;;;;;;;;;;;2074908;28;1672;-82
2021/08/31 02:34:05;;;;;;;;;;;;;;;;;;2074518;28;1493;-81
2021/08/31 02:35:06;;;;;;;;;;;;;;;;;;2066714;28;1598;-80
2021/08/31 02:36:08;;;;;;;;;;;;;;;;;;2074125;28;1201;-80
2021/08/31 02:37:08;;;;;;;;;;;;;;;;;;2074596;28;815;-80
2021/08/31 02:38:11;;;;;;;;;;;;;;;;;;2074596;28;1747;-80
2021/08/31 02:39:13;;;;;;;;;;;;;;;;;;2066631;28;1596;-80
2021/08/31 02:40:15;;;;;;;;;;;;;;;;;;2066296;28;1977;-80
2021/08/31 02:41:15;;;;;;;;;;;;;;;;;;2074358;28;1713;-80
2021/08/31 02:42:18;;;;;;;;;;;;;;;;;;2074353;28;1930;-80
2021/08/31 02:43:19;;;;;;;;;;;;;;;;;;2066628;28;1569;-80
2021/08/31 02:44:21;;;;;;;;;;;;;;;;;;2074406;28;1712;-80
2021/08/31 02:45:23;;;;;;;;;;;;;;;;;;2074155;28;1722;-80
2021/08/31 02:46:24;;;;;;;;;;;;;;;;;;2074893;28;822;-80
2021/08/31 02:47:26;;;;;;;;;;;;;;;;;;2065853;28;1534;-82
2021/08/31 02:48:26;;;;;;;;;;;;;;;;;;2058165;28;1558;-81
2021/08/31 02:49:28;;;;;;;;;;;;;;;;;;2066349;28;1333;-82
2021/08/31 02:50:31;;;;;;;;;;;;;;;;;;2066501;28;1201;-81
2021/08/31 02:51:32;;;;;;;;;;;;;;;;;;2066300;28;1636;-82
2021/08/31 02:52:34;;;;;;;;;;;;;;;;;;2058652;28;805;-82
2021/08/31 02:53:35;;;;;;;;;;;;;;;;;;2058387;28;1411;-82
2021/08/31 02:54:36;;;;;;;;;;;;;;;;;;2058283;28;2100;-82
2021/08/31 02:55:40;;;;;;;;;;;;;;;;;;2058223;28;1205;-82
2021/08/31 02:56:40;;;;;;;;;;;;;;;;;;2066696;28;1256;-82
2021/08/31 02:57:44;;;;;;;;;;;;;;;;;;2066346;28;1352;-81
2021/08/31 02:58:44;;;;;;;;;;;;;;;;;;2066479;28;1273;-82
2021/08/31 02:59:46;;;;;;;;;;;;;;;;;;2065755;28;1926;-82
2021/08/31 03:01:04;;;;;;;;;;;;;;;;;;2074646;28;1906;-81
2021/08/31 03:02:05;;;;;;;;;;;;;;;;;;2074566;28;1851;-82
2021/08/31 03:03:07;;;;;;;;;;;;;;;;;;2066238;28;1745;-82
2021/08/31 03:04:07;;;;;;;;;;;;;;;;;;2074001;28;1334;-82
2021/08/31 03:05:09;;;;;;;;;;;;;;;;;;2074352;28;1454;-82
2021/08/31 03:06:10;;;;;;;;;;;;;;;;;;2066288;28;1786;-81
2021/08/31 03:07:13;;;;;;;;;;;;;;;;;;2066318;28;2136;-82
2021/08/31 03:08:14;;;;;;;;;;;;;;;;;;2066583;28;1161;-82
2021/08/31 03:09:15;;;;;;;;;;;;;;;;;;2066830;28;1696;-81
2021/08/31 03:10:16;;;;;;;;;;;;;;;;;;2073851;28;1244;-82
2021/08/31 03:11:18;;;;;;;;;;;;;;;;;;2074528;28;1418;-82
2021/08/31 03:12:20;;;;;;;;;;;;;;;;;;2065928;28;1362;-82
2021/08/31 03:13:22;;;;;;;;;;;;;;;;;;2066618;28;1740;-82
2021/08/31 03:14:24;;;;;;;;;;;;;;;;;;2066675;28;1231;-81
2021/08/31 03:15:25;;;;;;;;;;;;;;;;;;2080748;28;1836;-82
2021/08/31 03:16:27;;;;;;;;;;;;;;;;;;2058517;28;1299;-81
2021/08/31 03:17:28;;;;;;;;;;;;;;;;;;2058157;28;1384;-81
2021/08/31 03:18:30;;;;;;;;;;;;;;;;;;2066670;28;1655;-81
2021/08/31 03:19:32;;;;;;;;;;;;;;;;;;2058407;28;1267;-81
2021/08/31 03:20:33;;;;;;;;;;;;;;;;;;2066380;28;1910;-81
2021/08/31 03:21:34;;;;;;;;;;;;;;;;;;2075916;28;1746;-81
2021/08/31 03:22:35;;;;;;;;;;;;;;;;;;2067988;28;1232;-81
2021/08/31 03:23:37;;;;;;;;;;;;;;;;;;2067809;28;1380;-81
2021/08/31 03:24:38;;;;;;;;;;;;;;;;;;2075899;28;1405;-81
2021/08/31 03:25:40;;;;;;;;;;;;;;;;;;2067477;28;1188;-82
2021/08/31 03:26:41;;;;;;;;;;;;;;;;;;2068671;28;1273;-81
2021/08/31 03:27:43;;;;;;;;;;;;;;;;;;2083797;28;1787;-81
2021/08/31 03:28:45;;;;;;;;;;;;;;;;;;2075802;28;1221;-81
2021/08/31 03:29:47;;;;;;;;;;;;;;;;;;2074375;28;2154;-81
2021/08/31 03:30:47;;;;;;;;;;;;;;;;;;2075696;28;1203;-81
2021/08/31 03:31:49;;;;;;;;;;;;;;;;;;2069248;28;1352;-81
2021/08/31 03:32:50;;;;;;;;;;;;;;;;;;2076225;28;886;-81
2021/08/31 03:33:52;;;;;;;;;;;;;;;;;;2075815;28;1271;-81
2021/08/31 03:34:52;;;;;;;;;;;;;;;;;;2067511;28;1494;-81
2021/08/31 03:35:54;;;;;;;;;;;;;;;;;;2067939;28;1298;-82
2021/08/31 03:36:56;;;;;;;;;;;;;;;;;;2075543;28;1581;-82
2021/08/31 03:37:57;;;;;;;;;;;;;;;;;;2075770;28;1442;-81
2021/08/31 03:38:59;;;;;;;;;;;;;;;;;;2068347;28;1405;-81
2021/08/31 03:39:59;;;;;;;;;;;;;;;;;;2071044;28;1331;-82
2021/08/31 03:41:01;;;;;;;;;;;;;;;;;;2075921;28;1981;-85
2021/08/31 03:42:02;;;;;;;;;;;;;;;;;;2084051;28;1197;-85
2021/08/31 03:43:04;;;;;;;;;;;;;;;;;;2075864;28;1221;-84
2021/08/31 03:44:06;;;;;;;;;;;;;;;;;;2076256;28;1219;-85
2021/08/31 03:45:09;;;;;;;;;;;;;;;;;;2084587;28;912;-84
2021/08/31 03:46:10;;;;;;;;;;;;;;;;;;2075842;28;1328;-84
2021/08/31 03:47:12;;;;;;;;;;;;;;;;;;2075959;28;1241;-84
2021/08/31 03:48:13;;;;;;;;;;;;;;;;;;2075837;28;1347;-84
2021/08/31 03:49:15;;;;;;;;;;;;;;;;;;2076186;28;1371;-84
2021/08/31 03:50:17;;;;;;;;;;;;;;;;;;2083659;28;1212;-84
2021/08/31 03:51:19;;;;;;;;;;;;;;;;;;2084406;28;891;-84
2021/08/31 03:52:23;;;;;;;;;;;;;;;;;;2077751;28;2165;-83
2021/08/31 03:53:25;;;;;;;;;;;;;;;;;;2075941;28;1418;-84
2021/08/31 03:54:27;;;;;;;;;;;;;;;;;;2076010;28;1448;-83
2021/08/31 03:55:28;;;;;;;;;;;;;;;;;;2075822;28;1395;-84
2021/08/31 03:56:30;;;;;;;;;;;;;;;;;;2067177;28;1372;-83
2021/08/31 03:57:31;;;;;;;;;;;;;;;;;;2075330;28;1468;-83
2021/08/31 03:58:32;;;;;;;;;;;;;;;;;;2076219;28;1387;-83
2021/08/31 03:59:38;;;;;;;;;;;;;;;;;;2075794;28;1235;-83
2021/08/31 04:00:39;;;;;;;;;;;;;;;;;;2068762;28;1914;-83
2021/08/31 04:01:41;;;;;;;;;;;;;;;;;;2075489;28;1315;-84
2021/08/31 04:02:42;;;;;;;;;;;;;;;;;;2076055;28;1108;-83
2021/08/31 04:03:44;;;;;;;;;;;;;;;;;;2075446;28;1376;-83
2021/08/31 04:04:45;;;;;;;;;;;;;;;;;;2069078;28;2061;-83
2021/08/31 04:05:47;;;;;;;;;;;;;;;;;;2067425;28;1303;-83
2021/08/31 04:06:49;;;;;;;;;;;;;;;;;;2075911;28;1265;-83
2021/08/31 04:07:50;;;;;;;;;;;;;;;;;;2083292;28;1354;-83
2021/08/31 04:08:52;;;;;;;;;;;;;;;;;;2075605;28;1422;-83
2021/08/31 04:09:54;;;;;;;;;;;;;;;;;;2075616;28;1386;-83
2021/08/31 04:10:56;;;;;;;;;;;;;;;;;;2083989;28;1608;-83
2021/08/31 04:11:58;;;;;;;;;;;;;;;;;;2075685;28;1490;-83
2021/08/31 04:12:59;;;;;;;;;;;;;;;;;;2067401;28;1294;-83
2021/08/31 04:14:01;;;;;;;;;;;;;;;;;;2075786;28;1260;-83
2021/08/31 04:15:03;;;;;;;;;;;;;;;;;;2075377;28;1388;-83
2021/08/31 04:16:05;;;;;;;;;;;;;;;;;;2067743;28;1236;-83
2021/08/31 04:17:07;;;;;;;;;;;;;;;;;;2068128;28;1216;-83
2021/08/31 04:18:10;;;;;;;;;;;;;;;;;;2061007;28;1438;-83
2021/08/31 04:19:10;;;;;;;;;;;;;;;;;;2059819;28;1197;-83
2021/08/31 04:20:13;;;;;;;;;;;;;;;;;;2058978;28;1314;-82
2021/08/31 04:21:15;;;;;;;;;;;;;;;;;;2059419;28;1979;-83
2021/08/31 04:22:16;;;;;;;;;;;;;;;;;;2067118;28;1244;-83
2021/08/31 04:23:18;;;;;;;;;;;;;;;;;;2067763;28;1342;-83
2021/08/31 04:24:19;;;;;;;;;;;;;;;;;;2059141;28;1345;-83
2021/08/31 04:25:22;;;;;;;;;;;;;;;;;;2059692;28;1241;-84
2021/08/31 04:26:24;;;;;;;;;;;;;;;;;;2059265;28;1351;-83
2021/08/31 04:27:25;;;;;;;;;;;;;;;;;;2059628;28;1300;-84
2021/08/31 04:28:28;;;;;;;;;;;;;;;;;;2059727;28;1229;-84
2021/08/31 04:29:29;;;;;;;;;;;;;;;;;;2059864;28;1281;-83
2021/08/31 04:30:33;;;;;;;;;;;;;;;;;;2074829;28;1865;-84
2021/08/31 04:31:33;;;;;;;;;;;;;;;;;;2075239;28;1395;-83
2021/08/31 04:32:35;;;;;;;;;;;;;;;;;;2075213;28;1290;-84
2021/08/31 04:33:36;;;;;;;;;;;;;;;;;;2075833;28;1251;-84
2021/08/31 04:34:38;;;;;;;;;;;;;;;;;;2067611;28;1526;-83
2021/08/31 04:35:39;;;;;;;;;;;;;;;;;;2066973;28;1212;-85
2021/08/31 04:36:41;;;;;;;;;;;;;;;;;;2067700;28;1308;-85
2021/08/31 04:37:41;;;;;;;;;;;;;;;;;;2065272;28;1370;-85
2021/08/31 04:38:44;;;;;;;;;;;;;;;;;;2067472;28;1304;-85
2021/08/31 04:39:45;;;;;;;;;;;;;;;;;;2068447;28;1932;-85
2021/08/31 04:40:46;;;;;;;;;;;;;;;;;;2074640;28;1440;-85
2021/08/31 04:41:50;;;;;;;;;;;;;;;;;;2067115;28;1219;-85
2021/08/31 04:42:52;;;;;;;;;;;;;;;;;;2066647;28;1474;-84
2021/08/31 04:43:53;;;;;;;;;;;;;;;;;;2067610;28;1185;-85
2021/08/31 04:44:58;;;;;;;;;;;;;;;;;;2075132;28;1921;-86
2021/08/31 04:46:01;;;;;;;;;;;;;;;;;;2074854;28;1336;-86
2021/08/31 04:47:02;;;;;;;;;;;;;;;;;;2068027;28;1370;-87
2021/08/31 04:48:04;;;;;;;;;;;;;;;;;;2075004;28;1402;-87
2021/08/31 04:49:05;;;;;;;;;;;;;;;;;;2067640;28;1274;-87
2021/08/31 04:50:08;;;;;;;;;;;;;;;;;;2066694;28;1986;-87
2021/08/31 04:51:10;;;;;;;;;;;;;;;;;;2075329;28;1230;-86
2021/08/31 04:52:10;;;;;;;;;;;;;;;;;;2066976;28;1318;-86
2021/08/31 04:53:13;;;;;;;;;;;;;;;;;;2075585;28;879;-86
2021/08/31 04:54:15;;;;;;;;;;;;;;;;;;2074459;28;1408;-85
2021/08/31 04:55:19;;;;;;;;;;;;;;;;;;2066193;28;1749;-84
2021/08/31 04:56:19;;;;;;;;;;;;;;;;;;2059039;28;1423;-85
2021/08/31 04:57:22;;;;;;;;;;;;;;;;;;2066931;28;1413;-84
2021/08/31 04:58:22;;;;;;;;;;;;;;;;;;2067342;28;1307;-84
2021/08/31 04:59:25;;;;;;;;;;;;;;;;;;2070076;28;1301;-85
2021/08/31 05:00:26;;;;;;;;;;;;;;;;;;2066193;28;1850;-84
2021/08/31 05:01:29;;;;;;;;;;;;;;;;;;2059583;28;1914;-85
2021/08/31 05:02:32;;;;;;;;;;;;;;;;;;2059375;28;1250;-84
2021/08/31 05:03:36;;;;;;;;;;;;;;;;;;2059540;28;1315;-84
2021/08/31 05:04:37;;;;;;;;;;;;;;;;;;2067332;28;1353;-85
2021/08/31 05:05:39;;;;;;;;;;;;;;;;;;2075471;28;1320;-85
2021/08/31 05:06:40;;;;;;;;;;;;;;;;;;2075160;28;1273;-84
2021/08/31 05:07:42;;;;;;;;;;;;;;;;;;2066753;28;1322;-85
2021/08/31 05:08:42;;;;;;;;;;;;;;;;;;2067079;28;1382;-85
2021/08/31 05:09:44;;;;;;;;;;;;;;;;;;2066376;28;1364;-85
2021/08/31 05:10:48;;;;;;;;;;;;;;;;;;2067017;28;1237;-85
2021/08/31 05:11:51;;;;;;;;;;;;;;;;;;2068242;28;1999;-84
2021/08/31 05:12:53;;;;;;;;;;;;;;;;;;2066951;28;1337;-85
2021/08/31 05:13:54;;;;;;;;;;;;;;;;;;2060571;28;1326;-85
2021/08/31 05:14:56;;;;;;;;;;;;;;;;;;2066323;28;1958;-85
2021/08/31 05:15:57;;;;;;;;;;;;;;;;;;2075549;28;1382;-85
2021/08/31 05:17:01;;;;;;;;;;;;;;;;;;2066910;28;1232;-85
2021/08/31 05:18:01;;;;;;;;;;;;;;;;;;2077698;28;1263;-85
2021/08/31 05:19:04;;;;;;;;;;;;;;;;;;2091987;28;1311;-85
2021/08/31 05:20:07;;;;;;;;;;;;;;;;;;2083496;28;2122;-85
2021/08/31 05:21:08;;;;;;;;;;;;;;;;;;2067368;28;1914;-85
2021/08/31 05:22:10;;;;;;;;;;;;;;;;;;2071157;28;2102;-85
2021/08/31 05:23:11;;;;;;;;;;;;;;;;;;2075014;28;1516;-86
2021/08/31 05:24:13;;;;;;;;;;;;;;;;;;2075082;28;1366;-85
2021/08/31 05:25:15;;;;;;;;;;;;;;;;;;2071951;28;1901;-87
2021/08/31 05:26:15;;;;;;;;;;;;;;;;;;2074974;28;1297;-87
2021/08/31 05:27:17;;;;;;;;;;;;;;;;;;2066729;28;2132;-87
2021/08/31 05:28:19;;;;;;;;;;;;;;;;;;2066700;28;1228;-85
2021/08/31 05:29:20;;;;;;;;;;;;;;;;;;2075438;28;1247;-85
2021/08/31 05:30:21;;;;;;;;;;;;;;;;;;2066457;28;1944;-85
2021/08/31 05:31:22;;;;;;;;;;;;;;;;;;2067354;28;1244;-86
2021/08/31 05:32:26;;;;;;;;;;;;;;;;;;2075087;28;1313;-85
2021/08/31 05:33:27;;;;;;;;;;;;;;;;;;2075471;28;1235;-86
2021/08/31 05:34:29;;;;;;;;;;;;;;;;;;2067416;28;1414;-86
2021/08/31 05:35:31;;;;;;;;;;;;;;;;;;2074491;28;1915;-87
2021/08/31 05:36:31;;;;;;;;;;;;;;;;;;2075145;28;1327;-86
2021/08/31 05:37:33;;;;;;;;;;;;;;;;;;2067432;28;1894;-86
2021/08/31 05:38:34;;;;;;;;;;;;;;;;;;2066787;28;1274;-86
2021/08/31 05:39:36;;;;;;;;;;;;;;;;;;2066913;28;1897;-87
2021/08/31 05:40:36;;;;;;;;;;;;;;;;;;2067587;28;1313;-86
2021/08/31 05:41:38;;;;;;;;;;;;;;;;;;2074544;28;2018;-86
2021/08/31 05:42:39;;;;;;;;;;;;;;;;;;2074877;28;1296;-85
2021/08/31 05:43:41;;;;;;;;;;;;;;;;;;2066496;28;1400;-85
2021/08/31 05:44:43;;;;;;;;;;;;;;;;;;2067377;28;2008;-87
2021/08/31 05:45:44;;;;;;;;;;;;;;;;;;2075274;28;1354;-86
2021/08/31 05:46:46;;;;;;;;;;;;;;;;;;2066894;28;1304;-86
2021/08/31 05:47:48;;;;;;;;;;;;;;;;;;2067079;28;1240;-85
2021/08/31 05:48:50;;;;;;;;;;;;;;;;;;2067304;28;1240;-87
2021/08/31 05:49:50;;;;;;;;;;;;;;;;;;2067289;28;2025;-86
2021/08/31 05:50:53;;;;;;;;;;;;;;;;;;2066791;28;1342;-85
2021/08/31 05:51:53;;;;;;;;;;;;;;;;;;2066445;28;1320;-86
2021/08/31 05:52:55;;;;;;;;;;;;;;;;;;2066720;28;1415;-86
2021/08/31 05:53:56;;;;;;;;;;;;;;;;;;2074704;28;1255;-85
2021/08/31 05:54:58;;;;;;;;;;;;;;;;;;2077484;28;1845;-84
2021/08/31 05:55:59;;;;;;;;;;;;;;;;;;2083020;28;1227;-83
2021/08/31 05:57:06;;;;;;;;;;;;;;;;;;2079569;28;1996;-84
2021/08/31 05:58:07;;;;;;;;;;;;;;;;;;2075803;28;1302;-84
2021/08/31 05:59:09;;;;;;;;;;;;;;;;;;2075217;28;1314;-85
2021/08/31 06:00:11;;;;;;;;;;;;;;;;;;2063292;28;1499;-85
2021/08/31 06:01:16;;;;;;;;;;;;;;;;;;2060013;28;1344;-84
2021/08/31 06:02:17;;;;;;;;;;;;;;;;;;2077780;28;1910;-84
2021/08/31 06:03:21;;;;;;;;;;;;;;;;;;2083039;28;1167;-85
2021/08/31 06:04:24;;;;;;;;;;;;;;;;;;2083158;28;1271;-84
2021/08/31 06:05:26;;;;;;;;;;;;;;;;;;2076668;28;1220;-85
2021/08/31 06:06:26;;;;;;;;;;;;;;;;;;2074890;28;1253;-85
2021/08/31 06:07:28;;;;;;;;;;;;;;;;;;2074675;28;1238;-85
2021/08/31 06:08:31;;;;;;;;;;;;;;;;;;2083444;28;1726;-86
2021/08/31 06:09:35;;;;;;;;;;;;;;;;;;2082603;28;1228;-86
2021/08/31 06:10:36;;;;;;;;;;;;;;;;;;2083624;28;1244;-85
2021/08/31 06:11:40;;;;;;;;;;;;;;;;;;2082087;28;1970;-87
2021/08/31 06:12:40;;;;;;;;;;;;;;;;;;2074723;28;1537;-86
2021/08/31 06:13:43;;;;;;;;;;;;;;;;;;2074448;28;1268;-86
2021/08/31 06:14:43;;;;;;;;;;;;;;;;;;2075083;28;1347;-86
2021/08/31 06:15:45;;;;;;;;;;;;;;;;;;2089237;28;1406;-86
2021/08/31 06:16:46;;;;;;;;;;;;;;;;;;2082751;28;1208;-86
2021/08/31 06:17:48;;;;;;;;;;;;;;;;;;2074994;28;1354;-86
2021/08/31 06:18:50;;;;;;;;;;;;;;;;;;2066572;28;1193;-86
2021/08/31 06:19:52;;;;;;;;;;;;;;;;;;2074500;28;1223;-86
2021/08/31 06:20:54;;;;;;;;;;;;;;;;;;2082929;28;1287;-86
2021/08/31 06:21:56;;;;;;;;;;;;;;;;;;2074904;28;1985;-85
2021/08/31 06:22:58;;;;;;;;;;;;;;;;;;2071809;28;1291;-86
2021/08/31 06:23:59;;;;;;;;;;;;;;;;;;2074501;28;1342;-86
2021/08/31 06:25:01;;;;;;;;;;;;;;;;;;2076261;28;1396;-86
2021/08/31 06:26:02;;;;;;;;;;;;;;;;;;2075180;28;1227;-86
2021/08/31 06:27:05;;;;;;;;;;;;;;;;;;2071308;28;1263;-85
2021/08/31 06:28:06;;;;;;;;;;;;;;;;;;2067094;28;1378;-85
2021/08/31 06:29:08;;;;;;;;;;;;;;;;;;2066620;28;1515;-85
2021/08/31 06:30:10;;;;;;;;;;;;;;;;;;2066253;28;1413;-86
2021/08/31 06:31:12;;;;;;;;;;;;;;;;;;2074940;28;1418;-85
2021/08/31 06:32:14;;;;;;;;;;;;;;;;;;2075047;28;1337;-85
2021/08/31 06:33:15;;;;;;;;;;;;;;;;;;2067134;28;1158;-85
2021/08/31 06:34:18;;;;;;;;;;;;;;;;;;2066866;28;1374;-85
2021/08/31 06:35:19;;;;;;;;;;;;;;;;;;2076951;28;1006;-85
2021/08/31 06:36:21;;;;;;;;;;;;;;;;;;2074431;28;1295;-85
2021/08/31 06:37:23;;;;;;;;;;;;;;;;;;2060846;28;1177;-85
2021/08/31 06:38:24;;;;;;;;;;;;;;;;;;2066941;28;875;-85
2021/08/31 06:39:26;;;;;;;;;;;;;;;;;;2066192;28;1324;-83
2021/08/31 06:40:27;;;;;;;;;;;;;;;;;;2065138;28;1230;-85
2021/08/31 06:41:29;;;;;;;;;;;;;;;;;;2074676;28;1350;-85
2021/08/31 06:42:31;;;;;;;;;;;;;;;;;;2074766;28;1898;-85
2021/08/31 06:43:33;;;;;;;;;;;;;;;;;;2066887;28;1336;-86
2021/08/31 06:44:35;;;;;;;;;;;;;;;;;;2066922;28;1270;-88
2021/08/31 06:45:37;;;;;;;;;;;;;;;;;;2066638;28;1350;-86
2021/08/31 06:46:39;;;;;;;;;;;;;;;;;;2077421;28;1377;-87
2021/08/31 06:47:41;;;;;;;;;;;;;;;;;;2078803;28;1303;-86
2021/08/31 06:48:42;;;;;;;;;;;;;;;;;;2076247;28;1257;-86
2021/08/31 06:49:48;;;;;;;;;;;;;;;;;;2075909;28;1846;-86
2021/08/31 06:50:49;;;;;;;;;;;;;;;;;;2071303;28;1369;-87
2021/08/31 06:51:51;;;;;;;;;;;;;;;;;;2073400;28;1399;-86
2021/08/31 06:52:52;;;;;;;;;;;;;;;;;;2075965;28;1371;-87
2021/08/31 06:53:54;;;;;;;;;;;;;;;;;;2083747;28;1311;-86
2021/08/31 06:55:00;;;;;;;;;;;;;;;;;;2079715;28;1390;-86
2021/08/31 06:56:01;;;;;;;;;;;;;;;;;;2067523;28;1467;-88
2021/08/31 06:57:03;;;;;;;;;;;;;;;;;;2066647;28;1388;-87
2021/08/31 06:58:04;;;;;;;;;;;;;;;;;;2074982;28;1443;-84
2021/08/31 06:59:06;;;;;;;;;;;;;;;;;;2076202;28;1454;-86
2021/08/31 07:00:10;;;;;;;;;;;;;;;;;;2076039;28;1463;-86
2021/08/31 07:01:10;;;;;;;;;;;;;;;;;;2076548;28;1478;-87
2021/08/31 07:02:15;;;;;;;;;;;;;;;;;;2080555;28;2091;-87
2021/08/31 07:03:16;;;;;;;;;;;;;;;;;;2061319;28;1347;-86
2021/08/31 07:04:18;;;;;;;;;;;;;;;;;;2084260;28;1333;-86
2021/08/31 07:05:21;;;;;;;;;;;;;;;;;;2084156;28;1301;-86
2021/08/31 07:06:23;;;;;;;;;;;;;;;;;;2076458;28;1369;-85
2021/08/31 07:07:24;;;;;;;;;;;;;;;;;;2084093;28;1288;-86
2021/08/31 07:08:25;;;;;;;;;;;;;;;;;;2076589;28;1662;-86
2021/08/31 07:09:27;;;;;;;;;;;;;;;;;;2068399;28;1283;-86